Time;durP1;ratioP1;P1;durP2;ratioP2;P2;SDS_P1;SDS_P2;PMS_P1;PMS_P2;Temp;Humidity;BMP_temperature;BMP_pressure;BME280_temperature;BME280_humidity;BME280_pressure;Samples;Min_cycle;Max_cycle;Signal;HPM_P1;HPM_P2
2022/06/11 00:00:56;;;;;;;8.82;5.65;;;17.70;99.90;;;;;;4998947;28;20125;-67
2022/06/11 00:03:22;;;;;;;11.63;5.85;;;17.70;99.90;;;;;;5003312;28;20379;-65
2022/06/11 00:05:49;;;;;;;11.48;5.85;;;17.60;99.90;;;;;;5001118;28;20041;-66
2022/06/11 00:08:16;;;;;;;14.35;6.53;;;17.50;99.90;;;;;;4999856;28;20091;-66
2022/06/11 00:10:42;;;;;;;12.30;5.88;;;17.50;99.90;;;;;;4997245;28;20048;-66
2022/06/11 00:13:08;;;;;;;12.15;6.28;;;17.40;99.90;;;;;;5000942;28;20539;-65
2022/06/11 00:15:34;;;;;;;9.73;6.03;;;17.40;99.90;;;;;;5000157;28;20054;-65
2022/06/11 00:18:00;;;;;;;10.40;5.63;;;17.40;99.90;;;;;;5000312;28;20042;-66
2022/06/11 00:20:27;;;;;;;11.77;5.63;;;17.30;99.90;;;;;;5073555;28;20126;-66
2022/06/11 00:22:53;;;;;;;9.32;5.63;;;17.30;99.90;;;;;;5070701;28;20115;-65
2022/06/11 00:25:20;;;;;;;10.27;6.22;;;17.30;99.90;;;;;;5101011;28;20151;-65
2022/06/11 00:27:47;;;;;;;11.23;6.40;;;17.20;99.90;;;;;;5102760;28;20533;-67
2022/06/11 00:30:14;;;;;;;9.35;6.07;;;17.20;99.90;;;;;;5087239;28;20048;-65
2022/06/11 00:32:41;;;;;;;10.13;6.47;;;17.30;99.90;;;;;;5099507;28;20043;-65
2022/06/11 00:35:08;;;;;;;9.65;6.20;;;17.20;99.90;;;;;;5103631;28;20039;-66
2022/06/11 00:37:34;;;;;;;10.30;6.90;;;17.20;99.90;;;;;;5086187;28;20073;-65
2022/06/11 00:40:01;;;;;;;13.23;6.60;;;17.20;99.90;;;;;;5101725;28;20024;-65
2022/06/11 00:42:31;;;;;;;13.68;6.40;;;17.20;99.90;;;;;;5083086;28;20039;-66
2022/06/11 00:45:15;;;;;;;9.48;6.05;;;17.20;99.90;;;;;;5087427;28;20138;-65
2022/06/11 00:47:44;;;;;;;12.90;6.78;;;17.10;99.90;;;;;;5099912;28;20523;-65
2022/06/11 00:50:40;;;;;;;10.93;5.85;;;17.20;99.90;;;;;;5087731;28;20068;-65
2022/06/11 00:53:14;;;;;;;13.05;6.35;;;17.20;99.90;;;;;;5078595;28;20040;-66
2022/06/11 00:55:42;;;;;;;11.07;6.10;;;17.00;99.90;;;;;;5100913;28;20420;-66
2022/06/11 00:58:19;;;;;;;11.00;6.35;;;17.10;99.90;;;;;;5102317;28;20173;-65
2022/06/11 01:00:49;;;;;;;13.65;6.10;;;17.00;99.90;;;;;;5100910;28;20417;-65
2022/06/11 01:03:18;;;;;;;12.00;6.32;;;17.00;99.90;;;;;;5073114;28;20047;-65
2022/06/11 01:05:49;;;;;;;12.20;6.40;;;16.90;99.90;;;;;;5087909;28;20035;-65
2022/06/11 01:08:21;;;;;;;12.77;6.15;;;16.90;99.90;;;;;;5104024;28;20058;-65
2022/06/11 01:11:19;;;;;;;13.05;5.88;;;16.90;99.90;;;;;;5100805;28;20035;-66
2022/06/11 01:14:04;;;;;;;10.15;5.28;;;16.80;99.90;;;;;;4997230;28;20053;-65
2022/06/11 01:16:53;;;;;;;8.68;4.90;;;16.80;99.90;;;;;;5057978;28;20355;-65
2022/06/11 01:19:49;;;;;;;8.65;4.78;;;16.80;99.90;;;;;;5061243;28;20079;-66
2022/06/11 01:22:18;;;;;;;9.82;5.40;;;16.70;99.90;;;;;;5087552;28;20071;-65
2022/06/11 01:24:43;;;;;;;11.52;5.10;;;16.70;99.90;;;;;;5099152;28;20690;-65
2022/06/11 01:27:36;;;;;;;9.60;5.00;;;16.70;99.90;;;;;;4998042;28;20533;-65
2022/06/11 01:30:04;;;;;;;11.77;5.38;;;16.70;99.90;;;;;;5094711;28;20074;-66
2022/06/11 01:32:56;;;;;;;12.60;5.32;;;16.60;99.90;;;;;;5082665;28;20040;-65
2022/06/11 01:35:39;;;;;;;10.18;4.65;;;16.60;99.90;;;;;;5000919;28;20362;-66
2022/06/11 01:38:21;;;;;;;12.38;5.40;;;16.60;99.90;;;;;;4993515;28;20477;-66
2022/06/11 01:40:51;;;;;;;11.05;5.88;;;16.50;99.90;;;;;;5049612;28;20046;-65
2022/06/11 01:43:25;;;;;;;10.10;6.22;;;16.40;99.90;;;;;;5058761;28;20057;-65
2022/06/11 01:45:51;;;;;;;;;;;16.40;99.90;;;;;;5102060;28;20036;-65
2022/06/11 01:48:23;;;;;;;11.88;6.75;;;16.30;99.90;;;;;;5100731;28;19924;-65
2022/06/11 01:51:18;;;;;;;14.15;7.53;;;16.30;99.90;;;;;;5086192;28;20040;-65
2022/06/11 01:53:57;;;;;;;11.00;7.63;;;16.20;99.90;;;;;;5090749;28;20154;-65
2022/06/11 01:56:43;;;;;;;10.88;7.95;;;16.20;99.90;;;;;;5098663;28;20448;-65
2022/06/11 01:59:30;;;;;;;10.02;7.35;;;16.00;99.90;;;;;;5100273;28;20123;-66
2022/06/11 02:02:21;;;;;;;11.80;7.90;;;16.00;99.90;;;;;;5081736;28;20052;-65
2022/06/11 02:05:04;;;;;;;12.57;8.15;;;15.90;99.90;;;;;;5099849;28;20441;-66
2022/06/11 02:07:42;;;;;;;12.35;8.05;;;15.90;99.90;;;;;;5088183;28;20343;-65
2022/06/11 02:10:34;;;;;;;12.52;8.43;;;15.90;99.90;;;;;;5092298;28;20032;-65
2022/06/11 02:13:14;;;;;;;15.48;9.18;;;15.80;99.90;;;;;;5083872;28;20101;-66
2022/06/11 02:16:09;;;;;;;14.75;9.43;;;15.80;99.90;;;;;;5102136;28;20174;-65
2022/06/11 02:18:35;;;;;;;16.42;9.27;;;15.80;99.90;;;;;;5101178;28;20075;-65
2022/06/11 02:21:10;;;;;;;12.50;9.13;;;15.80;99.90;;;;;;5093144;28;20532;-66
2022/06/11 02:23:54;;;;;;;14.68;9.95;;;15.80;99.90;;;;;;5063644;28;20129;-65
2022/06/11 02:26:27;;;;;;;18.52;10.02;;;15.80;99.90;;;;;;5000308;28;20495;-65
2022/06/11 02:28:55;;;;;;;16.02;9.85;;;15.80;99.90;;;;;;4998815;28;20065;-66
2022/06/11 02:31:26;;;;;;;17.02;9.50;;;15.80;99.90;;;;;;4995775;28;20521;-66
2022/06/11 02:33:52;;;;;;;18.17;10.05;;;15.80;99.90;;;;;;4998420;28;20402;-65
2022/06/11 02:36:29;;;;;;;15.13;10.32;;;15.70;99.90;;;;;;4998558;28;20037;-67
2022/06/11 02:38:57;;;;;;;20.08;10.57;;;15.80;99.90;;;;;;4998854;28;20046;-65
2022/06/11 02:41:31;;;;;;;16.23;10.55;;;15.70;99.90;;;;;;4998939;28;20053;-65
2022/06/11 02:43:57;;;;;;;17.40;9.90;;;15.70;99.90;;;;;;4996803;28;20497;-66
2022/06/11 02:46:41;;;;;;;15.55;10.68;;;15.60;99.90;;;;;;4998358;28;20106;-65
2022/06/11 02:49:26;;;;;;;15.23;9.80;;;15.60;99.90;;;;;;4996531;28;20038;-66
2022/06/11 02:51:54;;;;;;;14.38;10.40;;;15.50;99.90;;;;;;5066141;28;20350;-65
2022/06/11 02:54:21;;;;;;;12.95;9.77;;;15.50;99.90;;;;;;4997407;28;20077;-66
2022/06/11 02:56:50;;;;;;;13.43;9.68;;;15.50;99.90;;;;;;5065868;28;20401;-65
2022/06/11 02:59:16;;;;;;;16.45;9.52;;;15.50;99.90;;;;;;4995484;28;20042;-65
2022/06/11 03:01:43;;;;;;;11.43;8.50;;;15.40;99.90;;;;;;5000431;28;20473;-65
2022/06/11 03:04:09;;;;;;;11.95;8.88;;;15.40;99.90;;;;;;4997474;28;20771;-66
2022/06/11 03:06:38;;;;;;;11.68;7.95;;;15.40;99.90;;;;;;4996342;28;20038;-65
2022/06/11 03:09:04;;;;;;;11.73;7.75;;;15.40;99.90;;;;;;4995128;28;20069;-65
2022/06/11 03:11:30;;;;;;;12.07;7.20;;;15.30;99.90;;;;;;5002000;28;20085;-66
2022/06/11 03:13:55;;;;;;;13.40;7.55;;;15.30;99.90;;;;;;5064281;28;20050;-65
2022/06/11 03:16:21;;;;;;;12.43;6.95;;;15.30;99.90;;;;;;5100593;28;20037;-65
2022/06/11 03:18:47;;;;;;;11.15;5.47;;;15.30;99.90;;;;;;5101385;28;20032;-65
2022/06/11 03:21:14;;;;;;;11.90;5.85;;;15.30;99.90;;;;;;5092865;28;20072;-65
2022/06/11 03:23:39;;;;;;;11.55;4.85;;;15.30;99.90;;;;;;5101010;28;20364;-65
2022/06/11 03:26:07;;;;;;;12.95;5.13;;;15.20;99.90;;;;;;5104310;28;20047;-65
2022/06/11 03:28:33;;;;;;;9.60;4.25;;;15.30;99.90;;;;;;5103070;28;20036;-65
2022/06/11 03:31:00;;;;;;;11.65;4.20;;;15.30;99.90;;;;;;5105000;28;20667;-65
2022/06/11 03:33:26;;;;;;;14.90;4.22;;;15.30;99.90;;;;;;5102682;28;20043;-65
2022/06/11 03:35:52;;;;;;;11.45;3.97;;;15.30;99.90;;;;;;5074651;28;20096;-65
2022/06/11 03:38:20;;;;;;;13.82;3.80;;;15.30;99.90;;;;;;5106275;28;20069;-65
2022/06/11 03:40:46;;;;;;;11.55;3.80;;;15.30;99.90;;;;;;5085588;28;20303;-66
2022/06/11 03:43:12;;;;;;;9.65;3.28;;;15.20;99.90;;;;;;5039445;28;20034;-65
2022/06/11 03:45:38;;;;;;;11.40;3.75;;;15.30;99.90;;;;;;5001129;28;20395;-65
2022/06/11 03:48:05;;;;;;;12.48;3.65;;;15.30;99.90;;;;;;5000639;28;20031;-65
2022/06/11 03:50:33;;;;;;;11.27;3.67;;;15.30;99.90;;;;;;5000912;28;20034;-65
2022/06/11 03:53:00;;;;;;;12.98;3.78;;;15.30;99.90;;;;;;5006866;28;20086;-65
2022/06/11 03:55:27;;;;;;;9.88;3.38;;;15.30;99.90;;;;;;4998420;28;20050;-65
2022/06/11 03:57:54;;;;;;;14.88;3.97;;;15.30;99.90;;;;;;5001549;28;20044;-65
2022/06/11 04:03:09;;;;;;;16.13;3.40;;;15.30;99.90;;;;;;5003540;28;20481;-66
2022/06/11 04:05:36;;;;;;;10.98;3.30;;;15.30;99.90;;;;;;5000887;28;20492;-65
2022/06/11 04:08:03;;;;;;;9.18;3.47;;;15.30;99.90;;;;;;5071317;28;20387;-66
2022/06/11 04:10:28;;;;;;;11.43;3.35;;;15.30;99.90;;;;;;5104643;28;20039;-65
2022/06/11 04:12:54;;;;;;;8.35;3.22;;;15.30;99.90;;;;;;5084112;28;20411;-65
2022/06/11 04:15:20;;;;;;;13.60;3.72;;;15.30;99.90;;;;;;5063440;28;20130;-65
2022/06/11 04:17:46;;;;;;;10.85;3.13;;;15.40;99.90;;;;;;5102501;28;20032;-65
2022/06/11 04:20:12;;;;;;;7.50;3.28;;;15.40;99.90;;;;;;5102642;28;20024;-65
2022/06/11 04:22:38;;;;;;;12.02;3.40;;;15.40;99.90;;;;;;5090910;28;20055;-65
2022/06/11 04:25:05;;;;;;;12.02;3.63;;;15.40;99.90;;;;;;5102715;28;20352;-65
2022/06/11 04:27:32;;;;;;;15.93;4.38;;;15.40;99.90;;;;;;5103199;28;20065;-65
2022/06/11 04:29:58;;;;;;;8.65;3.08;;;15.40;99.90;;;;;;5102465;28;20074;-65
2022/06/11 04:32:27;;;;;;;11.43;4.40;;;15.40;99.90;;;;;;5046397;28;20127;-64
2022/06/11 04:34:53;;;;;;;11.63;3.63;;;15.50;99.90;;;;;;5074176;28;20125;-66
2022/06/11 04:37:21;;;;;;;12.20;4.07;;;15.50;99.90;;;;;;5102454;28;20109;-65
2022/06/11 04:39:50;;;;;;;10.13;3.78;;;15.50;99.90;;;;;;5103075;28;20047;-65
2022/06/11 04:42:17;;;;;;;9.70;4.18;;;15.60;99.90;;;;;;5103055;28;20361;-65
2022/06/11 04:44:44;;;;;;;9.77;3.92;;;15.60;99.90;;;;;;4999862;28;20080;-66
2022/06/11 04:47:13;;;;;;;10.35;4.63;;;15.60;99.90;;;;;;4998760;28;20466;-64
2022/06/11 04:49:39;;;;;;;11.57;4.22;;;15.70;99.90;;;;;;5087646;28;20243;-66
2022/06/11 04:52:05;;;;;;;11.55;4.00;;;15.70;99.90;;;;;;5100836;28;20044;-65
2022/06/11 04:54:31;;;;;;;15.95;4.90;;;15.90;99.90;;;;;;5090286;28;20079;-65
2022/06/11 04:56:57;;;;;;;9.85;4.20;;;16.40;99.90;;;;;;5067261;28;20035;-65
2022/06/11 04:59:23;;;;;;;11.60;3.97;;;17.20;99.90;;;;;;5054676;28;21522;-66
2022/06/11 05:01:50;;;;;;;13.23;4.72;;;18.10;99.90;;;;;;5003776;28;20046;-66
2022/06/11 05:04:16;;;;;;;11.40;4.53;;;18.70;99.90;;;;;;4998986;28;20026;-66
2022/06/11 05:06:46;;;;;;;14.20;3.92;;;19.10;99.90;;;;;;4996524;28;20026;-65
2022/06/11 05:09:15;;;;;;;11.38;3.92;;;19.70;99.90;;;;;;5000006;28;20030;-66
2022/06/11 05:11:42;;;;;;;8.57;3.75;;;20.10;99.90;;;;;;5057160;28;20057;-66
2022/06/11 05:14:08;;;;;;;7.57;3.30;;;20.60;99.90;;;;;;4997950;28;20109;-65
2022/06/11 05:16:35;;;;;;;9.57;4.13;;;21.10;99.90;;;;;;4998598;28;20162;-67
2022/06/11 05:19:01;;;;;;;8.55;3.60;;;21.40;99.90;;;;;;5001388;28;20425;-65
2022/06/11 05:21:27;;;;;;;8.80;3.75;;;21.40;99.90;;;;;;4997349;28;20637;-65
2022/06/11 05:23:53;;;;;;;9.98;3.55;;;21.70;99.90;;;;;;5098814;28;20028;-66
2022/06/11 05:26:29;;;;;;;10.45;3.78;;;21.90;99.90;;;;;;5102267;28;20355;-66
2022/06/11 05:28:55;;;;;;;9.95;3.63;;;22.20;99.90;;;;;;5073731;28;20039;-68
2022/06/11 05:31:20;;;;;;;8.95;3.53;;;22.50;99.90;;;;;;5102068;28;20364;-66
2022/06/11 05:33:46;;;;;;;10.95;3.38;;;22.70;99.90;;;;;;5076295;28;20632;-66
2022/06/11 05:36:14;;;;;;;13.88;3.50;;;22.60;99.90;;;;;;4998513;28;20038;-66
2022/06/11 05:38:42;;;;;;;12.25;3.22;;;22.60;99.90;;;;;;4998245;28;20034;-66
2022/06/11 05:41:07;;;;;;;11.77;3.80;;;22.40;99.90;;;;;;5071676;28;20039;-66
2022/06/11 05:43:33;;;;;;;15.57;3.90;;;22.30;99.90;;;;;;5101354;28;20028;-65
2022/06/11 05:46:12;;;;;;;15.05;4.18;;;22.40;99.90;;;;;;4998602;28;20118;-66
2022/06/11 05:48:53;;;;;;;13.63;4.22;;;22.60;99.90;;;;;;5066240;28;20041;-66
2022/06/11 05:51:25;;;;;;;10.73;3.35;;;22.50;99.90;;;;;;5101641;28;20108;-66
2022/06/11 05:53:54;;;;;;;12.88;3.90;;;22.60;99.90;;;;;;5101195;28;20075;-66
2022/06/11 05:56:20;;;;;;;13.13;3.80;;;22.90;99.90;;;;;;5053699;28;20475;-65
2022/06/11 05:58:52;;;;;;;16.38;4.40;;;22.70;99.90;;;;;;5103897;28;20076;-65
2022/06/11 06:01:26;;;;;;;11.90;3.50;;;22.90;99.90;;;;;;5099209;28;20054;-65
2022/06/11 06:03:51;;;;;;;16.45;3.95;;;22.80;99.90;;;;;;5097752;28;20127;-66
2022/06/11 06:06:17;;;;;;;13.52;3.80;;;23.10;99.90;;;;;;5100602;28;20123;-66
2022/06/11 06:08:44;;;;;;;17.65;4.47;;;23.20;99.90;;;;;;5099065;28;20135;-66
2022/06/11 06:11:10;;;;;;;19.30;5.03;;;23.10;99.90;;;;;;5059833;28;20043;-66
2022/06/11 06:13:48;;;;;;;11.88;3.78;;;22.70;99.90;;;;;;5100903;28;20036;-67
2022/06/11 06:16:19;;;;;;;15.27;4.00;;;23.00;99.90;;;;;;5080414;28;20433;-65
2022/06/11 06:18:46;;;;;;;13.93;4.10;;;22.90;99.90;;;;;;5097173;28;20456;-65
2022/06/11 06:21:12;;;;;;;14.85;3.88;;;22.90;99.90;;;;;;5102524;28;20035;-66
2022/06/11 06:23:39;;;;;;;15.30;4.22;;;23.30;99.90;;;;;;5097691;28;20031;-66
2022/06/11 06:26:04;;;;;;;15.55;3.75;;;23.90;99.90;;;;;;5090282;28;20036;-66
2022/06/11 06:28:32;;;;;;;17.52;3.97;;;24.30;99.90;;;;;;5065800;28;20050;-65
2022/06/11 06:30:59;;;;;;;15.30;4.25;;;24.20;99.90;;;;;;5085189;28;20342;-66
2022/06/11 06:33:26;;;;;;;19.83;4.10;;;23.90;99.90;;;;;;5099010;28;20092;-66
2022/06/11 06:35:52;;;;;;;14.07;4.85;;;23.90;99.90;;;;;;5102268;28;20036;-66
2022/06/11 06:38:18;;;;;;;18.35;4.47;;;23.40;99.90;;;;;;5086360;28;20369;-66
2022/06/11 06:40:44;;;;;;;14.65;4.25;;;23.60;99.90;;;;;;5070580;28;20046;-66
2022/06/11 06:43:10;;;;;;;13.55;4.20;;;23.60;99.90;;;;;;5095530;28;20064;-66
2022/06/11 06:45:36;;;;;;;17.50;4.70;;;23.40;99.90;;;;;;5099046;28;20168;-68
2022/06/11 06:48:02;;;;;;;19.40;4.25;;;23.20;99.90;;;;;;5082336;28;20445;-66
2022/06/11 06:50:29;;;;;;;18.88;3.97;;;23.40;99.90;;;;;;5101400;28;20359;-67
2022/06/11 06:52:55;;;;;;;15.73;4.15;;;23.50;99.90;;;;;;5096884;28;20057;-67
2022/06/11 06:55:22;;;;;;;17.63;4.32;;;23.50;99.90;;;;;;5078849;28;20035;-66
2022/06/11 06:57:49;;;;;;;22.98;5.82;;;23.30;99.90;;;;;;5099123;28;20072;-66
2022/06/11 07:00:17;;;;;;;19.55;4.45;;;22.90;99.90;;;;;;5098774;28;20058;-66
2022/06/11 07:02:44;;;;;;;16.45;5.05;;;22.60;99.90;;;;;;5093911;28;20036;-68
2022/06/11 07:05:10;;;;;;;20.88;5.13;;;22.30;99.90;;;;;;5088178;28;20059;-67
2022/06/11 07:07:37;;;;;;;21.02;4.85;;;22.20;99.90;;;;;;5094464;28;20032;-66
2022/06/11 07:10:04;;;;;;;19.95;4.75;;;22.10;99.90;;;;;;5104171;28;20044;-66
2022/06/11 07:12:30;;;;;;;16.58;5.22;;;22.10;99.90;;;;;;5097919;28;20102;-66
2022/06/11 07:14:56;;;;;;;18.10;4.43;;;21.80;99.90;;;;;;5086200;28;20075;-67
2022/06/11 07:17:23;;;;;;;20.80;4.88;;;22.10;99.90;;;;;;5105784;28;20039;-67
2022/06/11 07:19:55;;;;;;;20.10;5.10;;;21.90;99.90;;;;;;5106027;28;20040;-67
2022/06/11 07:22:26;;;;;;;16.85;4.10;;;21.80;99.90;;;;;;5102017;28;20043;-65
2022/06/11 07:24:52;;;;;;;22.13;5.25;;;21.90;99.90;;;;;;5101990;28;20094;-65
2022/06/11 07:27:24;;;;;;;26.13;4.90;;;21.80;99.90;;;;;;5087949;28;20526;-66
2022/06/11 07:29:57;;;;;;;17.88;4.88;;;21.80;99.90;;;;;;5084154;28;20028;-66
2022/06/11 07:32:26;;;;;;;18.27;4.63;;;21.60;99.90;;;;;;5097725;28;20032;-66
2022/06/11 07:34:52;;;;;;;24.48;5.38;;;21.50;99.90;;;;;;5099767;28;20117;-66
2022/06/11 07:37:19;;;;;;;20.33;4.60;;;21.40;99.90;;;;;;5081550;28;20423;-66
2022/06/11 07:39:45;;;;;;;20.73;5.38;;;21.30;99.90;;;;;;5100838;28;20094;-64
2022/06/11 07:42:11;;;;;;;19.65;4.65;;;21.30;99.90;;;;;;5098301;28;20040;-64
2022/06/11 07:44:38;;;;;;;22.25;4.80;;;21.40;99.90;;;;;;5100782;28;20039;-66
2022/06/11 07:47:05;;;;;;;20.15;4.57;;;21.70;99.90;;;;;;5101482;28;20227;-65
2022/06/11 07:49:31;;;;;;;16.70;4.63;;;21.80;99.90;;;;;;5090624;28;20034;-67
2022/06/11 07:51:57;;;;;;;21.52;5.28;;;21.70;99.90;;;;;;5075311;28;20127;-66
2022/06/11 07:54:23;;;;;;;19.25;4.82;;;21.50;99.90;;;;;;5089286;28;20628;-66
2022/06/11 07:56:48;;;;;;;20.08;4.85;;;21.60;99.90;;;;;;5101015;28;20054;-65
2022/06/11 07:59:14;;;;;;;19.08;4.75;;;21.50;99.90;;;;;;5097506;28;20082;-66
2022/06/11 08:01:40;;;;;;;18.45;4.47;;;21.60;99.90;;;;;;5082403;28;20032;-67
2022/06/11 08:04:05;;;;;;;22.42;4.55;;;21.60;99.90;;;;;;5098665;28;20020;-67
2022/06/11 08:06:31;;;;;;;21.15;5.10;;;21.50;99.90;;;;;;5089513;28;20042;-67
2022/06/11 08:08:57;;;;;;;16.65;4.35;;;21.40;99.90;;;;;;5105429;28;20459;-66
2022/06/11 08:11:23;;;;;;;21.92;5.10;;;21.50;99.90;;;;;;5103624;28;20460;-67
2022/06/11 08:13:49;;;;;;;21.70;4.82;;;21.40;99.90;;;;;;5103772;28;20123;-67
2022/06/11 08:16:15;;;;;;;18.98;4.88;;;21.40;99.90;;;;;;5104462;28;20073;-66
2022/06/11 08:18:41;;;;;;;20.40;5.57;;;21.40;99.90;;;;;;5103311;28;20372;-68
2022/06/11 08:21:08;;;;;;;24.02;5.15;;;21.30;99.90;;;;;;5078422;28;20044;-66
2022/06/11 08:23:34;;;;;;;20.38;4.70;;;21.30;99.90;;;;;;5071574;28;20072;-66
2022/06/11 08:26:00;;;;;;;18.00;4.57;;;21.30;99.90;;;;;;5073322;28;20128;-66
2022/06/11 08:28:26;;;;;;;22.20;5.60;;;21.40;99.90;;;;;;5102980;28;20027;-66
2022/06/11 08:30:52;;;;;;;21.67;4.90;;;21.30;99.90;;;;;;5079098;28;20101;-66
2022/06/11 08:33:18;;;;;;;19.70;4.68;;;21.30;99.90;;;;;;5102446;28;20043;-67
2022/06/11 08:35:44;;;;;;;22.52;5.00;;;21.20;99.90;;;;;;5103536;28;20099;-66
2022/06/11 08:38:11;;;;;;;16.23;4.10;;;21.30;99.90;;;;;;5104183;28;20040;-67
2022/06/11 08:40:53;;;;;;;19.95;4.93;;;21.30;99.90;;;;;;5101560;28;20044;-66
2022/06/11 08:43:25;;;;;;;20.05;4.85;;;21.30;99.90;;;;;;5066660;28;20104;-66
2022/06/11 08:45:58;;;;;;;17.98;4.00;;;21.20;99.90;;;;;;5102261;28;20111;-66
2022/06/11 08:48:41;;;;;;;13.18;3.50;;;21.10;99.90;;;;;;5101563;28;20039;-67
2022/06/11 08:51:26;;;;;;;17.00;4.30;;;21.20;99.90;;;;;;5102753;28;20136;-68
2022/06/11 08:53:55;;;;;;;16.17;4.15;;;21.10;99.90;;;;;;5103496;28;20040;-67
2022/06/11 08:56:34;;;;;;;16.35;3.88;;;21.10;99.90;;;;;;5083917;28;20056;-66
2022/06/11 08:59:06;;;;;;;15.00;3.70;;;21.10;99.90;;;;;;5102284;28;20047;-66
2022/06/11 09:01:44;;;;;;;23.40;4.47;;;21.20;99.90;;;;;;5100346;28;20176;-66
2022/06/11 09:04:38;;;;;;;17.48;3.92;;;21.10;99.90;;;;;;5060190;28;20039;-64
2022/06/11 09:07:23;;;;;;;12.30;3.65;;;21.20;99.90;;;;;;5088991;28;20032;-66
2022/06/11 09:10:01;;;;;;;15.65;3.60;;;21.30;99.90;;;;;;5084407;28;20107;-66
2022/06/11 09:12:56;;;;;;;17.30;4.10;;;21.30;99.90;;;;;;5068159;28;20134;-66
2022/06/11 09:15:35;;;;;;;13.10;3.38;;;21.50;99.90;;;;;;5081864;28;20086;-66
2022/06/11 09:18:16;;;;;;;14.75;3.47;;;21.60;99.90;;;;;;5104237;28;20040;-66
2022/06/11 09:21:00;;;;;;;15.18;3.92;;;21.50;99.90;;;;;;5066424;28;20062;-66
2022/06/11 09:23:46;;;;;;;14.55;3.75;;;21.30;99.90;;;;;;5099390;28;20115;-66
2022/06/11 09:26:31;;;;;;;15.13;3.35;;;21.40;99.90;;;;;;5101627;28;20059;-66
2022/06/11 09:29:33;;;;;;;13.77;3.38;;;21.50;99.90;;;;;;5086245;28;20353;-65
2022/06/11 09:32:11;;;;;;;15.02;3.83;;;21.50;99.90;;;;;;5089647;28;20408;-65
2022/06/11 09:34:42;;;;;;;17.75;4.03;;;21.60;99.90;;;;;;5100938;28;20043;-65
2022/06/11 09:37:08;;;;;;;14.38;3.70;;;21.70;99.90;;;;;;5102136;28;20522;-66
2022/06/11 09:40:00;;;;;;;13.00;3.75;;;21.60;99.90;;;;;;5077358;28;20455;-65
2022/06/11 09:42:39;;;;;;;11.57;3.50;;;21.70;99.90;;;;;;5089816;28;20040;-66
2022/06/11 09:45:16;;;;;;;15.73;3.72;;;21.70;99.90;;;;;;5087777;28;20111;-65
2022/06/11 09:48:17;;;;;;;12.88;3.92;;;21.80;99.90;;;;;;5099212;28;20043;-65
2022/06/11 09:50:58;;;;;;;14.93;3.63;;;21.70;99.90;;;;;;5098343;28;20712;-66
2022/06/11 09:53:54;;;;;;;9.95;2.83;;;21.70;99.90;;;;;;5098459;28;20342;-66
2022/06/11 09:56:38;;;;;;;14.82;3.40;;;21.50;99.90;;;;;;5060802;28;20047;-66
2022/06/11 09:59:06;;;;;;;12.55;3.10;;;21.70;99.90;;;;;;5085128;28;20035;-67
2022/06/11 10:01:43;;;;;;;12.05;3.17;;;21.70;99.90;;;;;;5078329;28;20380;-64
2022/06/11 10:04:13;;;;;;;11.85;3.03;;;21.70;99.90;;;;;;5081300;28;20039;-64
2022/06/11 10:06:47;;;;;;;11.38;2.97;;;21.70;99.90;;;;;;5091207;28;20036;-64
2022/06/11 10:09:25;;;;;;;11.73;2.92;;;21.70;99.90;;;;;;5091647;28;20028;-64
2022/06/11 10:12:25;;;;;;;8.40;2.60;;;21.80;99.90;;;;;;5094739;28;20055;-64
2022/06/11 10:15:03;;;;;;;11.90;3.08;;;21.80;99.50;;;;;;5100288;28;20418;-64
2022/06/11 10:17:51;;;;;;;10.40;3.15;;;21.80;99.50;;;;;;5082110;28;20075;-63
2022/06/11 10:20:38;;;;;;;12.63;3.45;;;21.90;99.90;;;;;;5099656;28;20486;-63
2022/06/11 10:23:22;;;;;;;11.75;3.75;;;22.10;99.40;;;;;;5087433;28;20470;-64
2022/06/11 10:26:18;;;;;;;11.07;3.40;;;22.10;98.70;;;;;;5097794;28;20093;-64
2022/06/11 10:29:17;;;;;;;12.27;3.60;;;22.00;99.70;;;;;;5063309;28;20055;-63
2022/06/11 10:32:07;;;;;;;10.00;3.22;;;21.90;99.90;;;;;;5097545;28;20056;-64
2022/06/11 10:34:39;;;;;;;12.13;3.53;;;21.80;99.90;;;;;;5058966;28;20036;-64
2022/06/11 10:37:12;;;;;;;11.95;3.80;;;21.90;99.90;;;;;;5097200;28;20039;-65
2022/06/11 10:39:59;;;;;;;11.38;3.35;;;21.80;98.90;;;;;;5101883;28;20035;-64
2022/06/11 10:42:37;;;;;;;16.10;3.72;;;22.10;99.20;;;;;;5096321;28;20048;-65
2022/06/11 10:45:03;;;;;;;13.55;3.50;;;22.20;98.90;;;;;;5096864;28;20027;-66
2022/06/11 10:47:38;;;;;;;13.93;3.83;;;22.30;98.60;;;;;;5100635;28;20071;-65
2022/06/11 10:50:09;;;;;;;12.60;3.78;;;22.20;98.70;;;;;;5082561;28;20090;-64
2022/06/11 10:52:51;;;;;;;17.45;3.47;;;22.20;98.30;;;;;;5100046;28;20462;-64
2022/06/11 10:55:30;;;;;;;11.95;3.88;;;22.20;98.80;;;;;;5086512;28;20036;-65
2022/06/11 10:57:58;;;;;;;12.27;2.80;;;22.20;98.30;;;;;;5098333;28;20083;-65
2022/06/11 11:00:35;;;;;;;12.70;3.10;;;22.20;98.40;;;;;;5100205;28;20051;-66
2022/06/11 11:03:11;;;;;;;13.02;3.17;;;22.30;98.60;;;;;;5094398;28;20032;-67
2022/06/11 11:06:03;;;;;;;12.20;2.97;;;22.30;98.50;;;;;;5094099;28;20043;-66
2022/06/11 11:08:29;;;;;;;9.45;2.70;;;22.20;98.30;;;;;;5069588;28;20048;-65
2022/06/11 11:10:58;;;;;;;14.93;3.45;;;22.20;98.40;;;;;;5054598;28;20510;-65
2022/06/11 11:13:40;;;;;;;12.77;2.85;;;22.30;99.10;;;;;;5048452;28;20050;-63
2022/06/11 11:16:12;;;;;;;12.95;3.47;;;22.40;99.30;;;;;;5097901;28;20465;-64
2022/06/11 11:18:43;;;;;;;21.70;3.85;;;22.40;98.90;;;;;;5099484;28;20032;-61
2022/06/11 11:21:26;;;;;;;14.05;3.65;;;22.40;99.00;;;;;;5098684;28;20043;-62
2022/06/11 11:23:57;;;;;;;10.93;3.40;;;22.30;99.10;;;;;;5098090;28;20043;-61
2022/06/11 11:26:36;;;;;;;13.95;3.45;;;22.30;98.90;;;;;;5096715;28;20062;-65
2022/06/11 11:29:16;;;;;;;13.88;4.05;;;22.40;99.30;;;;;;5057007;28;20038;-66
2022/06/11 11:32:37;;;;;;;10.18;2.60;;;22.40;98.60;;;;;;5092699;28;20444;-65
2022/06/11 11:35:18;;;;;;;12.82;3.22;;;22.30;98.70;;;;;;5073235;28;20522;-66
2022/06/11 11:37:46;;;;;;;13.77;4.10;;;22.30;99.30;;;;;;5077577;28;20201;-63
2022/06/11 11:40:47;;;;;;;9.00;2.92;;;22.20;99.20;;;;;;5099706;28;20036;-63
2022/06/11 11:43:15;;;;;;;14.18;2.80;;;22.30;98.90;;;;;;5100174;28;20046;-65
2022/06/11 11:45:58;;;;;;;11.98;3.63;;;22.40;99.10;;;;;;5098653;28;20116;-64
2022/06/11 11:48:35;;;;;;;14.37;3.53;;;22.40;99.10;;;;;;5099699;28;20032;-65
2022/06/11 11:51:08;;;;;;;11.38;3.13;;;22.50;98.90;;;;;;5094785;28;20078;-64
2022/06/11 11:53:45;;;;;;;15.80;4.07;;;22.40;99.10;;;;;;5101682;28;20052;-65
2022/06/11 11:56:34;;;;;;;13.57;3.70;;;22.40;99.20;;;;;;5057555;28;20132;-63
2022/06/11 11:59:32;;;;;;;14.38;3.13;;;22.50;98.90;;;;;;5101027;28;20127;-63
2022/06/11 12:02:13;;;;;;;13.75;3.17;;;22.40;99.50;;;;;;5102993;28;20140;-63
2022/06/11 12:04:50;;;;;;;11.55;3.25;;;22.50;99.10;;;;;;5102103;28;20342;-64
2022/06/11 12:07:21;;;;;;;8.40;2.88;;;22.50;98.60;;;;;;5093434;28;20043;-62
2022/06/11 12:09:53;;;;;;;13.07;3.55;;;22.50;99.00;;;;;;5102592;28;20039;-63
2022/06/11 12:12:30;;;;;;;12.45;3.38;;;22.60;98.50;;;;;;5099317;28;20044;-62
2022/06/11 12:15:00;;;;;;;13.73;3.90;;;22.60;98.50;;;;;;5085093;28;20043;-64
2022/06/11 12:17:44;;;;;;;13.02;3.63;;;22.70;98.80;;;;;;5102626;28;20051;-64
2022/06/11 12:20:33;;;;;;;11.10;3.08;;;22.60;98.70;;;;;;5100615;28;20043;-63
2022/06/11 12:23:14;;;;;;;12.23;3.55;;;22.60;99.10;;;;;;5058662;28;20043;-63
2022/06/11 12:26:07;;;;;;;11.18;3.22;;;22.70;99.50;;;;;;5102208;28;20047;-63
2022/06/11 12:28:45;;;;;;;10.70;3.30;;;22.80;98.70;;;;;;5086584;28;20096;-63
2022/06/11 12:31:11;;;;;;;20.33;3.72;;;23.00;99.00;;;;;;5059013;28;20055;-63
2022/06/11 12:33:43;;;;;;;10.70;2.85;;;23.10;98.90;;;;;;5101130;28;20043;-66
2022/06/11 12:36:20;;;;;;;12.70;3.30;;;23.10;99.00;;;;;;5099357;28;20040;-63
2022/06/11 12:39:04;;;;;;;16.15;3.42;;;23.10;99.10;;;;;;5099946;28;20043;-64
2022/06/11 12:42:15;;;;;;;11.65;3.10;;;23.10;99.00;;;;;;5103501;28;20038;-63
2022/06/11 12:45:08;;;;;;;14.88;4.03;;;23.10;99.10;;;;;;5090404;28;20040;-62
2022/06/11 12:48:01;;;;;;;14.15;3.65;;;23.10;99.20;;;;;;5100450;28;20055;-63
2022/06/11 12:50:44;;;;;;;11.70;3.42;;;23.20;99.80;;;;;;5062450;28;20047;-64
2022/06/11 12:53:31;;;;;;;13.98;3.65;;;23.20;99.10;;;;;;5078490;28;20063;-64
2022/06/11 12:56:05;;;;;;;15.52;3.95;;;23.20;99.10;;;;;;5064920;28;20087;-62
2022/06/11 12:58:47;;;;;;;12.88;3.70;;;23.20;99.30;;;;;;5062499;28;20496;-63
2022/06/11 13:01:33;;;;;;;13.82;3.90;;;23.20;99.40;;;;;;5091621;28;20032;-63
2022/06/11 13:04:16;;;;;;;12.20;3.03;;;23.00;99.00;;;;;;5100509;28;20054;-63
2022/06/11 13:07:14;;;;;;;9.73;3.03;;;22.90;99.20;;;;;;5098865;28;20437;-63
2022/06/11 13:09:48;;;;;;;14.27;3.13;;;22.90;99.90;;;;;;5100613;28;20024;-65
2022/06/11 13:12:17;;;;;;;12.48;3.40;;;23.00;99.90;;;;;;5067858;28;20384;-64